createdAt,value
2018-02-05T00:00:00.066Z,2.78
2018-02-05T00:02:32.055Z,2.72
2018-02-05T00:05:03.995Z,2.77
2018-02-05T00:07:36.366Z,2.75
2018-02-05T00:10:08.745Z,2.75
2018-02-05T00:12:42.883Z,2.83
2018-02-05T00:15:17.998Z,2.84
2018-02-05T00:17:49.407Z,2.86
2018-02-05T00:20:20.619Z,2.99
2018-02-05T00:22:53.289Z,3.07
2018-02-05T00:25:25.079Z,3.10
2018-02-05T00:27:56.318Z,3.10
2018-02-05T00:30:27.726Z,3.18
2018-02-05T00:33:01.192Z,3.16
2018-02-05T00:35:32.648Z,3.35
2018-02-05T00:38:04.470Z,3.40
2018-02-05T00:40:35.617Z,3.50
2018-02-05T00:43:08.119Z,3.61
2018-02-05T00:45:38.887Z,3.41
2018-02-05T00:48:10.453Z,3.37
2018-02-05T00:50:50.042Z,3.26
2018-02-05T00:53:22.242Z,3.23
2018-02-05T00:55:54.386Z,3.32
2018-02-05T00:58:25.796Z,3.34
2018-02-05T01:00:58.341Z,3.40
2018-02-05T01:03:29.502Z,3.49
2018-02-05T01:06:00.644Z,3.51
2018-02-05T01:08:31.773Z,3.41
2018-02-05T01:11:03.380Z,3.51
2018-02-05T01:13:38.764Z,3.55
2018-02-05T01:16:10.465Z,3.60
2018-02-05T01:18:41.206Z,3.59
2018-02-05T01:21:12.058Z,3.36
2018-02-05T01:23:43.505Z,3.25
2018-02-05T01:26:15.404Z,3.30
2018-02-05T01:28:46.386Z,3.12
2018-02-05T01:33:59.920Z,3.12
2018-02-05T01:36:30.660Z,3.20
2018-02-05T01:39:02.102Z,3.14
2018-02-05T01:41:33.305Z,3.10
2018-02-05T01:44:05.300Z,2.99
2018-02-05T01:46:36.260Z,2.92
2018-02-05T01:49:07.142Z,2.91
2018-02-05T01:51:37.928Z,2.97
2018-02-05T01:54:08.674Z,3.00
2018-02-05T01:56:39.786Z,2.85
2018-02-05T01:59:11.012Z,2.84
2018-02-05T02:01:43.197Z,2.78
2018-02-05T02:04:13.996Z,2.81
2018-02-05T02:06:45.083Z,2.83
2018-02-05T02:09:15.834Z,2.71
2018-02-05T02:11:46.770Z,2.74
2018-02-05T02:14:17.544Z,2.88
2018-02-05T02:16:49.129Z,2.93
2018-02-05T02:19:20.615Z,2.98
2018-02-05T02:21:51.479Z,2.78
2018-02-05T02:24:22.363Z,2.79
2018-02-05T02:26:53.668Z,2.84
2018-02-05T02:29:24.844Z,2.88
2018-02-05T02:31:55.818Z,2.74
2018-02-05T02:34:26.477Z,2.66
2018-02-05T02:36:56.786Z,2.77
2018-02-05T02:39:27.624Z,2.87
2018-02-05T02:41:59.758Z,2.91
2018-02-05T02:44:30.637Z,2.93
2018-02-05T02:47:03.019Z,2.88
2018-02-05T02:49:34.461Z,2.86
2018-02-05T02:52:06.865Z,2.74
2018-02-05T02:54:51.469Z,2.78
2018-02-05T02:57:24.318Z,3.02
2018-02-05T02:59:56.060Z,3.03
2018-02-05T03:02:27.087Z,3.07
2018-02-05T03:04:59.395Z,3.15
2018-02-05T03:07:30.266Z,3.25
2018-02-05T03:10:00.638Z,3.22
2018-02-05T03:12:35.558Z,3.21
2018-02-05T03:15:16.613Z,3.02
2018-02-05T03:17:47.766Z,3.09
2018-02-05T03:20:18.633Z,2.95
2018-02-05T03:22:49.615Z,2.89
2018-02-05T03:25:21.146Z,3.01
2018-02-05T03:27:51.720Z,3.08
2018-02-05T03:30:22.706Z,3.13
2018-02-05T03:32:53.132Z,3.17
2018-02-05T03:35:26.091Z,3.04
2018-02-05T03:37:57.533Z,3.06
2018-02-05T03:40:28.969Z,2.83
2018-02-05T03:43:00.645Z,2.90
2018-02-05T03:45:31.579Z,2.56
2018-02-05T03:48:09.209Z,2.86
2018-02-05T03:50:41.425Z,2.81
2018-02-05T03:53:12.352Z,3.02
2018-02-05T03:55:45.248Z,3.17
2018-02-05T03:58:17.593Z,3.22
2018-02-05T04:00:49.485Z,3.17
2018-02-05T04:03:22.029Z,3.09
2018-02-05T04:05:53.090Z,2.91
2018-02-05T04:08:25.648Z,2.93
2018-02-05T04:10:57.348Z,2.76
2018-02-05T04:13:29.679Z,2.71
2018-02-05T04:16:01.824Z,2.72
2018-02-05T04:18:38.716Z,2.77
2018-02-05T04:21:09.780Z,2.76
2018-02-05T04:23:42.054Z,2.67
2018-02-05T04:26:13.786Z,2.63
2018-02-05T04:28:44.774Z,2.58
2018-02-05T04:31:16.304Z,2.59
2018-02-05T04:33:48.429Z,2.63
2018-02-05T04:36:19.487Z,2.67
2018-02-05T04:38:50.130Z,2.79
2018-02-05T04:41:21.110Z,2.61
2018-02-05T04:43:52.405Z,2.52
2018-02-05T04:46:24.530Z,2.53
2018-02-05T04:48:56.572Z,2.53
2018-02-05T04:51:39.341Z,2.36
2018-02-05T04:54:11.784Z,2.35
2018-02-05T04:56:43.704Z,2.23
2018-02-05T04:59:14.185Z,2.16
2018-02-05T05:01:45.758Z,2.15
2018-02-05T05:04:16.777Z,2.11
2018-02-05T05:06:48.026Z,2.05
2018-02-05T05:09:18.720Z,2.00
2018-02-05T05:11:49.083Z,1.94
2018-02-05T05:14:19.916Z,1.91
2018-02-05T05:16:53.649Z,1.88
2018-02-05T05:19:24.387Z,1.81
2018-02-05T05:21:54.989Z,1.79
2018-02-05T05:24:25.936Z,1.79
2018-02-05T05:26:56.536Z,1.73
2018-02-05T05:29:26.967Z,1.82
2018-02-05T05:31:58.154Z,1.81
2018-02-05T05:34:28.816Z,1.78
2018-02-05T05:37:00.431Z,1.87
2018-02-05T05:39:32.541Z,1.91
2018-02-05T05:42:02.816Z,1.88
2018-02-05T05:44:35.283Z,2.03
2018-02-05T05:47:06.720Z,2.02
2018-02-05T05:49:38.459Z,2.00
2018-02-05T05:52:09.808Z,2.12
2018-02-05T05:54:40.757Z,2.16
2018-02-05T05:57:11.211Z,2.22
2018-02-05T05:59:41.932Z,2.19
2018-02-05T06:02:14.327Z,2.33
2018-02-05T06:04:45.253Z,2.44
2018-02-05T06:07:16.456Z,2.42
2018-02-05T06:09:47.998Z,2.61
2018-02-05T06:12:19.063Z,2.72
2018-02-05T06:14:50.141Z,2.59
2018-02-05T06:17:22.013Z,2.67
2018-02-05T06:19:57.565Z,2.64
2018-02-05T06:22:29.311Z,2.40
2018-02-05T06:25:00.405Z,2.41
2018-02-05T06:27:31.202Z,2.25
2018-02-05T06:30:04.734Z,2.19
2018-02-05T06:32:36.411Z,2.38
2018-02-05T06:35:08.946Z,2.41
2018-02-05T06:37:41.875Z,2.56
2018-02-05T06:40:15.520Z,2.55
2018-02-05T06:42:47.702Z,2.73
2018-02-05T06:45:19.838Z,2.69
2018-02-05T06:47:51.201Z,2.71
2018-02-05T06:50:31.068Z,2.91
2018-02-05T06:53:45.613Z,2.79
2018-02-05T06:56:27.333Z,2.89
2018-02-05T06:59:00.269Z,2.86
2018-02-05T07:01:31.953Z,2.83
2018-02-05T07:04:03.148Z,2.84
2018-02-05T07:06:33.399Z,2.91
2018-02-05T07:09:06.252Z,2.80
2018-02-05T07:11:37.898Z,2.91
2018-02-05T07:14:09.959Z,2.72
2018-02-05T07:16:43.785Z,2.81
2018-02-05T07:19:16.289Z,2.72
2018-02-05T07:21:50.559Z,2.84
2018-02-05T07:24:29.204Z,2.78
2018-02-05T07:27:02.847Z,2.80
2018-02-05T07:29:35.048Z,2.96
2018-02-05T07:32:17.662Z,2.99
2018-02-05T07:34:48.704Z,3.03
2018-02-05T07:37:19.640Z,3.08
2018-02-05T07:42:20.189Z,3.25
2018-02-05T07:44:57.742Z,3.17
2018-02-05T07:47:30.426Z,3.05
2018-02-05T07:50:01.393Z,3.04
2018-02-05T07:52:32.023Z,2.96
2018-02-05T07:55:05.442Z,3.05
2018-02-05T07:57:38.434Z,2.92
2018-02-05T08:00:11.514Z,2.91
2018-02-05T08:02:44.997Z,2.87
2018-02-05T08:05:17.227Z,3.10
2018-02-05T08:07:49.937Z,3.29
2018-02-05T08:10:24.199Z,3.29
2018-02-05T08:12:58.555Z,3.33
2018-02-05T08:15:30.671Z,3.39
2018-02-05T08:18:02.190Z,3.37
2018-02-05T08:20:32.611Z,3.35
2018-02-05T08:23:03.575Z,3.39
2018-02-05T08:25:35.416Z,3.43
2018-02-05T08:28:06.925Z,3.27
2018-02-05T08:30:39.372Z,3.23
2018-02-05T08:33:13.198Z,3.26
2018-02-05T08:35:44.165Z,3.34
2018-02-05T08:38:16.475Z,3.30
2018-02-05T08:40:48.432Z,3.34
2018-02-05T08:43:22.512Z,3.82
2018-02-05T08:45:58.755Z,5.10
2018-02-05T08:48:31.040Z,6.08
2018-02-05T08:51:09.508Z,6.92
2018-02-05T08:54:07.190Z,7.80
2018-02-05T08:56:39.753Z,8.58
2018-02-05T08:59:11.027Z,8.21
2018-02-05T09:01:53.938Z,8.31
2018-02-05T09:04:25.578Z,9.03
2018-02-05T09:06:57.767Z,9.09
2018-02-05T09:09:29.656Z,9.36
2018-02-05T09:12:00.514Z,9.72
2018-02-05T09:14:35.784Z,9.45
2018-02-05T09:17:10.609Z,9.59
2018-02-05T09:19:41.388Z,9.69
2018-02-05T09:22:12.735Z,9.48
2018-02-05T09:24:43.889Z,10.00
2018-02-05T09:29:57.961Z,10.65
2018-02-05T09:32:29.079Z,10.26
2018-02-05T09:34:59.791Z,10.93
2018-02-05T09:37:32.251Z,11.24
2018-02-05T09:40:04.760Z,11.44
2018-02-05T09:42:36.634Z,11.66
2018-02-05T09:45:08.274Z,10.92
2018-02-05T09:47:39.578Z,10.34
2018-02-05T09:50:11.936Z,10.83
2018-02-05T09:52:44.615Z,11.97
2018-02-05T09:55:15.747Z,10.78
2018-02-05T09:57:47.445Z,10.73
2018-02-05T10:00:19.912Z,10.83
2018-02-05T10:02:51.784Z,11.10
2018-02-05T10:05:22.279Z,11.46
2018-02-05T10:07:55.182Z,11.87
2018-02-05T10:10:26.922Z,12.02
2018-02-05T10:12:58.633Z,12.14
2018-02-05T10:15:29.868Z,11.99
2018-02-05T10:20:28.812Z,12.84
2018-02-05T10:23:00.316Z,12.80
2018-02-05T10:25:31.964Z,13.37
2018-02-05T10:28:03.397Z,13.97
2018-02-05T10:30:35.404Z,14.08
2018-02-05T10:33:06.368Z,13.70
2018-02-05T10:35:37.715Z,13.93
2018-02-05T10:38:08.471Z,13.94
2018-02-05T10:40:43.740Z,13.09
2018-02-05T10:43:14.416Z,12.70
2018-02-05T10:45:46.096Z,12.83
2018-02-05T10:48:25.550Z,12.64
2018-02-05T10:50:57.385Z,13.06
2018-02-05T10:53:29.619Z,13.54
2018-02-05T10:56:00.308Z,14.10
2018-02-05T10:58:33.945Z,13.67
2018-02-05T11:01:05.852Z,13.70
2018-02-05T11:03:37.737Z,14.05
2018-02-05T11:06:08.079Z,13.46
2018-02-05T11:08:39.268Z,13.40
2018-02-05T11:11:10.647Z,12.63
2018-02-05T11:13:41.542Z,13.47
2018-02-05T11:16:12.903Z,13.60
2018-02-05T11:18:43.936Z,13.29
2018-02-05T11:21:14.545Z,13.29
2018-02-05T11:23:46.018Z,12.67
2018-02-05T11:26:16.163Z,12.98
2018-02-05T11:28:46.648Z,12.72
2018-02-05T11:31:17.474Z,12.84
2018-02-05T11:33:48.906Z,12.32
2018-02-05T11:36:20.955Z,12.66
2018-02-05T11:38:52.386Z,12.88
2018-02-05T11:41:22.910Z,12.90
2018-02-05T11:43:54.090Z,12.74
2018-02-05T11:46:25.505Z,12.73
2018-02-05T11:48:56.288Z,12.43
2018-02-05T11:51:27.206Z,12.43
2018-02-05T11:53:57.582Z,12.63
2018-02-05T11:56:28.926Z,12.76
2018-02-05T11:59:01.475Z,12.60
2018-02-05T12:01:32.798Z,12.45
2018-02-05T12:04:05.127Z,12.58
2018-02-05T12:06:36.861Z,12.58
2018-02-05T12:09:08.423Z,12.34
2018-02-05T12:11:39.499Z,12.50
2018-02-05T12:14:10.467Z,12.23
2018-02-05T12:16:42.314Z,12.33
2018-02-05T12:19:13.309Z,11.78
2018-02-05T12:21:44.340Z,11.83
2018-02-05T12:24:17.519Z,12.12
2018-02-05T12:26:48.247Z,12.06
2018-02-05T12:29:19.453Z,11.72
2018-02-05T12:31:51.454Z,11.94
2018-02-05T12:34:22.216Z,11.19
2018-02-05T12:36:54.142Z,11.17
2018-02-05T12:39:25.297Z,11.47
2018-02-05T12:41:57.308Z,11.27
2018-02-05T12:44:28.592Z,10.99
2018-02-05T12:47:14.855Z,10.72
2018-02-05T12:49:48.556Z,10.49
2018-02-05T12:52:20.243Z,10.50
2018-02-05T12:54:50.937Z,10.54
2018-02-05T12:57:24.314Z,10.05
2018-02-05T13:02:39.384Z,10.23
2018-02-05T13:05:10.622Z,10.25
2018-02-05T13:07:42.660Z,10.26
2018-02-05T13:10:14.959Z,10.35
2018-02-05T13:12:51.883Z,10.16
2018-02-05T13:15:22.797Z,9.77
2018-02-05T13:17:53.748Z,9.59
2018-02-05T13:20:25.273Z,9.89
2018-02-05T13:22:55.734Z,10.03
2018-02-05T13:25:26.491Z,9.79
2018-02-05T13:27:56.764Z,9.82
2018-02-05T13:30:27.782Z,9.76
2018-02-05T13:33:09.493Z,9.78
2018-02-05T13:35:42.074Z,9.75
2018-02-05T13:38:15.164Z,9.63
2018-02-05T13:40:45.654Z,9.51
2018-02-05T13:43:17.002Z,9.39
2018-02-05T13:45:49.997Z,9.10
2018-02-05T13:48:22.008Z,9.03
2018-02-05T13:50:52.450Z,8.89
2018-02-05T13:53:22.700Z,9.07
2018-02-05T13:55:53.326Z,9.22
2018-02-05T13:58:27.923Z,9.02
2018-02-05T14:00:59.305Z,8.89
2018-02-05T14:03:31.503Z,8.70
2018-02-05T14:06:05.158Z,8.64
2018-02-05T14:08:36.588Z,8.48
2018-02-05T14:11:15.557Z,8.37
2018-02-05T14:13:46.899Z,8.37
2018-02-05T14:16:17.359Z,8.39
2018-02-05T14:18:54.165Z,8.45
2018-02-05T14:21:30.422Z,8.28
2018-02-05T14:24:03.132Z,8.27
2018-02-05T14:26:35.704Z,8.33
2018-02-05T14:29:16.469Z,8.50
2018-02-05T14:31:49.612Z,8.76
2018-02-05T14:34:20.775Z,8.59
2018-02-05T14:39:48.630Z,8.41
2018-02-05T14:42:19.837Z,8.32
2018-02-05T14:44:50.679Z,8.11
2018-02-05T14:47:21.725Z,8.07
2018-02-05T14:49:55.362Z,8.00
2018-02-05T14:52:33.495Z,7.88
2018-02-05T14:55:07.073Z,7.66
2018-02-05T14:57:48.197Z,7.62
2018-02-05T15:00:19.303Z,7.59
2018-02-05T15:02:52.526Z,7.44
2018-02-05T15:05:24.317Z,7.29
2018-02-05T15:07:55.218Z,7.29
2018-02-05T15:10:26.248Z,7.29
2018-02-05T15:12:56.689Z,7.22
2018-02-05T15:15:27.611Z,7.16
2018-02-05T15:17:58.855Z,7.10
2018-02-05T15:20:30.351Z,7.06
2018-02-05T15:23:01.770Z,7.09
2018-02-05T15:25:32.582Z,7.13
2018-02-05T15:28:03.683Z,6.98
2018-02-05T15:30:43.730Z,6.98
2018-02-05T15:33:18.346Z,6.95
2018-02-05T15:35:49.695Z,6.72
2018-02-05T15:38:21.850Z,6.88
2018-02-05T15:40:55.267Z,6.76
2018-02-05T15:43:31.317Z,6.65
2018-02-05T15:46:03.158Z,6.67
2018-02-05T15:48:34.045Z,6.68
2018-02-05T15:51:05.164Z,6.62
2018-02-05T15:53:36.176Z,6.64
2018-02-05T15:56:08.488Z,6.55
2018-02-05T15:58:41.022Z,6.56
2018-02-05T16:01:12.860Z,6.61
2018-02-05T16:03:43.950Z,6.59
2018-02-05T16:06:18.113Z,6.46
2018-02-05T16:08:49.486Z,6.59
2018-02-05T16:11:20.916Z,6.44
2018-02-05T16:13:52.794Z,6.38
2018-02-05T16:16:23.635Z,6.31
2018-02-05T16:18:56.754Z,6.35
2018-02-05T16:21:27.894Z,6.25
2018-02-05T16:23:58.428Z,6.13
2018-02-05T16:26:36.848Z,6.16
2018-02-05T16:29:08.769Z,6.10
2018-02-05T16:31:40.670Z,6.08
2018-02-05T16:34:14.538Z,6.19
2018-02-05T16:36:45.024Z,6.18
2018-02-05T16:39:17.955Z,6.04
2018-02-05T16:41:50.085Z,5.86
2018-02-05T16:44:21.652Z,5.75
2018-02-05T16:46:58.449Z,5.65
2018-02-05T16:49:38.893Z,5.56
2018-02-05T16:52:10.908Z,5.59
2018-02-05T16:54:43.291Z,5.67
2018-02-05T16:57:15.880Z,5.70
2018-02-05T16:59:47.760Z,5.67
2018-02-05T17:02:25.419Z,5.57
2018-02-05T17:04:55.672Z,5.60
2018-02-05T17:07:30.769Z,5.65
2018-02-05T17:10:03.372Z,5.48
2018-02-05T17:12:34.611Z,5.49
2018-02-05T17:15:09.484Z,5.47
2018-02-05T17:17:42.795Z,5.42
2018-02-05T17:20:14.682Z,5.41
2018-02-05T17:22:49.041Z,5.24
2018-02-05T17:25:20.091Z,5.20
2018-02-05T17:27:52.123Z,5.16
2018-02-05T17:30:28.428Z,5.07
2018-02-05T17:33:00.207Z,5.01
2018-02-05T17:35:31.557Z,4.97
2018-02-05T17:40:43.782Z,4.61
2018-02-05T17:43:15.042Z,4.92
2018-02-05T17:45:46.997Z,4.96
2018-02-05T17:48:17.989Z,4.87
2018-02-05T17:50:53.047Z,4.95
2018-02-05T17:53:23.940Z,5.03
2018-02-05T17:55:55.152Z,4.93
2018-02-05T17:58:25.863Z,4.94
2018-02-05T18:00:57.460Z,4.93
2018-02-05T18:03:28.329Z,4.89
2018-02-05T18:05:59.914Z,5.02
2018-02-05T18:08:32.047Z,5.08
2018-02-05T18:11:03.653Z,4.98
2018-02-05T18:13:35.253Z,5.02
2018-02-05T18:16:06.435Z,4.93
2018-02-05T18:18:38.364Z,4.88
2018-02-05T18:21:10.266Z,4.90
2018-02-05T18:23:47.189Z,4.92
2018-02-05T18:26:19.548Z,4.93
2018-02-05T18:28:52.835Z,4.89
2018-02-05T18:31:24.132Z,4.75
2018-02-05T18:33:55.058Z,4.85
2018-02-05T18:36:26.078Z,4.86
2018-02-05T18:39:00.726Z,4.71
2018-02-05T18:41:32.489Z,4.71
2018-02-05T18:44:06.899Z,4.70
2018-02-05T18:46:39.389Z,4.57
2018-02-05T18:49:11.436Z,4.62
2018-02-05T18:51:43.516Z,4.66
2018-02-05T18:54:16.930Z,4.62
2018-02-05T18:56:48.591Z,4.55
2018-02-05T18:59:21.543Z,4.61
2018-02-05T19:02:02.944Z,4.52
2018-02-05T19:04:39.463Z,4.31
2018-02-05T19:07:12.449Z,4.28
2018-02-05T19:09:44.729Z,4.17
2018-02-05T19:12:17.428Z,4.19
2018-02-05T19:14:48.821Z,4.11
2018-02-05T19:17:20.618Z,4.17
2018-02-05T19:19:51.660Z,4.13
2018-02-05T19:22:23.331Z,3.93
2018-02-05T19:24:54.775Z,3.88
2018-02-05T19:27:28.267Z,3.94
2018-02-05T19:30:00.906Z,3.83
2018-02-05T19:32:35.574Z,3.93
2018-02-05T19:35:08.052Z,4.02
2018-02-05T19:37:39.899Z,4.00
2018-02-05T19:40:12.467Z,4.06
2018-02-05T19:42:45.439Z,4.05
2018-02-05T19:45:20.829Z,4.01
2018-02-05T19:47:54.995Z,3.81
2018-02-05T19:50:34.157Z,3.67
2018-02-05T19:53:07.816Z,3.62
2018-02-05T19:55:40.182Z,3.64
2018-02-05T19:58:15.268Z,3.49
2018-02-05T20:00:47.103Z,3.44
2018-02-05T20:03:19.488Z,3.56
2018-02-05T20:05:52.439Z,3.51
2018-02-05T20:08:23.522Z,3.52
2018-02-05T20:10:56.166Z,3.58
2018-02-05T20:13:27.666Z,3.64
2018-02-05T20:15:59.503Z,3.53
2018-02-05T20:18:30.365Z,3.55
2018-02-05T20:21:02.027Z,3.55
2018-02-05T20:23:33.114Z,3.48
2018-02-05T20:26:04.534Z,3.50
2018-02-05T20:28:35.844Z,3.52
2018-02-05T20:31:07.023Z,3.70
2018-02-05T20:33:37.865Z,3.71
2018-02-05T20:36:09.736Z,3.68
2018-02-05T20:38:41.065Z,3.61
2018-02-05T20:41:12.342Z,3.67
2018-02-05T20:43:43.398Z,3.68
2018-02-05T20:46:16.560Z,3.68
2018-02-05T20:48:49.366Z,3.74
2018-02-05T20:51:20.689Z,3.77
2018-02-05T20:53:57.527Z,3.85
2018-02-05T20:56:29.489Z,3.76
2018-02-05T20:59:02.174Z,3.77
2018-02-05T21:04:23.865Z,3.84
2018-02-05T21:07:00.382Z,3.87
2018-02-05T21:09:31.790Z,3.62
2018-02-05T21:12:03.255Z,3.58
2018-02-05T21:14:34.577Z,3.62
2018-02-05T21:17:06.392Z,3.58
2018-02-05T21:19:38.495Z,3.55
2018-02-05T21:22:10.378Z,3.45
2018-02-05T21:24:41.249Z,3.48
2018-02-05T21:27:12.541Z,3.52
2018-02-05T21:29:43.861Z,3.34
2018-02-05T21:32:15.622Z,3.35
2018-02-05T21:34:47.257Z,3.43
2018-02-05T21:37:18.405Z,3.44
2018-02-05T21:39:50.514Z,3.50
2018-02-05T21:42:22.186Z,3.55
2018-02-05T21:44:53.029Z,3.58
2018-02-05T21:47:24.048Z,3.64
2018-02-05T21:49:55.294Z,3.62
2018-02-05T21:52:27.276Z,3.53
2018-02-05T21:54:58.160Z,3.58
2018-02-05T21:57:29.752Z,3.63
2018-02-05T22:00:06.135Z,3.65
2018-02-05T22:02:40.831Z,3.56
2018-02-05T22:05:13.087Z,3.60
2018-02-05T22:07:44.770Z,3.57
2018-02-05T22:10:15.710Z,3.50
2018-02-05T22:12:48.100Z,3.47
2018-02-05T22:15:22.520Z,3.52
2018-02-05T22:17:53.882Z,3.25
2018-02-05T22:20:25.485Z,3.24
2018-02-05T22:22:56.467Z,3.35
2018-02-05T22:25:33.579Z,3.25
2018-02-05T22:28:17.061Z,3.15
2018-02-05T22:30:48.898Z,3.15
2018-02-05T22:33:20.054Z,3.26
2018-02-05T22:35:51.215Z,3.30
2018-02-05T22:38:22.088Z,3.29
2018-02-05T22:40:53.295Z,3.24
2018-02-05T22:43:25.969Z,3.21
2018-02-05T22:45:58.058Z,3.14
2018-02-05T22:48:29.876Z,2.96
2018-02-05T22:51:02.912Z,2.84
2018-02-05T22:53:33.933Z,2.89
2018-02-05T22:56:05.835Z,2.87
2018-02-05T22:58:37.900Z,2.87
2018-02-05T23:01:10.359Z,2.86
2018-02-05T23:03:43.145Z,2.83
2018-02-05T23:06:14.455Z,2.67
2018-02-05T23:08:46.536Z,2.68
2018-02-05T23:11:19.410Z,2.78
2018-02-05T23:13:51.052Z,2.88
2018-02-05T23:16:26.306Z,2.64
2018-02-05T23:18:59.476Z,2.75
2018-02-05T23:21:30.475Z,2.70
2018-02-05T23:24:01.853Z,2.64
2018-02-05T23:26:33.180Z,2.67
2018-02-05T23:29:05.481Z,2.76
2018-02-05T23:31:38.211Z,2.72
2018-02-05T23:34:09.577Z,2.75
2018-02-05T23:36:41.944Z,2.85
2018-02-05T23:39:13.758Z,2.80
2018-02-05T23:41:44.480Z,2.79
2018-02-05T23:44:15.901Z,2.84
2018-02-05T23:46:47.033Z,2.85
2018-02-05T23:49:17.894Z,2.85
2018-02-05T23:51:50.154Z,2.78
2018-02-05T23:54:21.897Z,2.87
2018-02-05T23:56:52.687Z,2.83
2018-02-05T23:59:23.564Z,2.83
